createdAt,value
2018-11-27T00:01:00.452Z,5.60
2018-11-27T00:03:32.892Z,5.60
2018-11-27T00:06:01.074Z,5.60
2018-11-27T00:08:29.349Z,5.60
2018-11-27T00:10:57.542Z,5.60
2018-11-27T00:13:25.772Z,5.60
2018-11-27T00:15:53.980Z,5.50
2018-11-27T00:18:22.190Z,5.50
2018-11-27T00:20:50.392Z,5.50
2018-11-27T00:23:18.555Z,5.50
2018-11-27T00:25:46.772Z,5.50
2018-11-27T00:28:14.977Z,5.40
2018-11-27T00:30:43.173Z,5.40
2018-11-27T00:33:11.370Z,5.50
2018-11-27T00:35:39.622Z,5.50
2018-11-27T00:38:07.897Z,5.50
2018-11-27T00:40:36.120Z,5.50
2018-11-27T00:43:04.692Z,5.50
2018-11-27T00:45:32.897Z,5.40
2018-11-27T00:48:01.118Z,5.40
2018-11-27T00:50:29.473Z,5.40
2018-11-27T00:52:57.821Z,5.40
2018-11-27T00:55:26.012Z,5.30
2018-11-27T00:57:54.208Z,5.40
2018-11-27T01:00:23.453Z,5.40
2018-11-27T01:02:51.668Z,5.40
2018-11-27T01:05:21.299Z,5.40
2018-11-27T01:07:49.635Z,5.40
2018-11-27T01:10:18.861Z,5.40
2018-11-27T01:12:47.374Z,5.40
2018-11-27T01:15:16.008Z,5.40
2018-11-27T01:17:48.426Z,5.40
2018-11-27T01:20:17.643Z,5.40
2018-11-27T01:22:45.868Z,5.50
2018-11-27T01:25:14.049Z,5.40
2018-11-27T01:27:42.242Z,5.40
2018-11-27T01:30:11.697Z,5.40
2018-11-27T01:32:39.914Z,5.40
2018-11-27T01:35:13.102Z,5.40
2018-11-27T01:37:41.293Z,5.50
2018-11-27T01:40:18.035Z,5.50
2018-11-27T01:42:47.134Z,5.50
2018-11-27T01:45:16.626Z,5.50
2018-11-27T01:47:45.056Z,5.40
2018-11-27T01:50:14.038Z,5.40
2018-11-27T01:52:42.321Z,5.40
2018-11-27T01:55:15.744Z,5.40
2018-11-27T01:57:43.936Z,5.40
2018-11-27T02:00:20.706Z,5.40
2018-11-27T02:02:49.052Z,5.40
2018-11-27T02:05:17.274Z,5.50
2018-11-27T02:07:45.480Z,5.40
2018-11-27T02:10:13.694Z,5.50
2018-11-27T02:12:43.265Z,5.50
2018-11-27T02:15:15.442Z,5.50
2018-11-27T02:17:43.669Z,5.50
2018-11-27T02:20:12.269Z,5.50
2018-11-27T02:22:40.746Z,5.50
2018-11-27T02:25:13.333Z,5.50
2018-11-27T02:27:41.586Z,5.40
2018-11-27T02:30:11.629Z,5.50
2018-11-27T02:32:39.834Z,5.50
2018-11-27T02:35:11.511Z,5.50
2018-11-27T02:37:39.777Z,5.50
2018-11-27T02:40:12.564Z,5.60
2018-11-27T02:42:40.944Z,5.60
2018-11-27T02:45:12.145Z,5.60
2018-11-27T02:47:40.768Z,5.60
2018-11-27T02:50:10.210Z,5.60
2018-11-27T02:52:38.458Z,5.60
2018-11-27T02:55:11.047Z,5.60
2018-11-27T02:57:39.222Z,5.50
2018-11-27T03:00:10.139Z,5.50
2018-11-27T03:02:38.349Z,5.60
2018-11-27T03:05:09.849Z,5.50
2018-11-27T03:07:38.048Z,5.50
2018-11-27T03:10:08.850Z,5.50
2018-11-27T03:12:37.312Z,5.40
2018-11-27T03:15:07.066Z,5.50
2018-11-27T03:17:35.271Z,5.50
2018-11-27T03:20:03.594Z,5.50
2018-11-27T03:22:31.784Z,5.50
2018-11-27T03:25:00.006Z,5.50
2018-11-27T03:27:28.199Z,5.40
2018-11-27T03:29:56.406Z,5.40
2018-11-27T03:32:24.638Z,5.50
2018-11-27T03:34:52.842Z,5.50
2018-11-27T03:37:21.037Z,5.50
2018-11-27T03:39:49.345Z,5.40
2018-11-27T03:42:17.562Z,5.40
2018-11-27T03:44:45.750Z,5.40
2018-11-27T03:47:13.966Z,5.40
2018-11-27T03:49:42.148Z,5.30
2018-11-27T03:52:10.366Z,5.40
2018-11-27T03:54:38.530Z,5.40
2018-11-27T03:57:06.749Z,5.40
2018-11-27T03:59:34.982Z,5.40
2018-11-27T04:02:03.160Z,5.50
2018-11-27T04:04:31.351Z,5.50
2018-11-27T04:06:59.527Z,5.50
2018-11-27T04:09:27.733Z,5.40
2018-11-27T04:11:55.937Z,5.50
2018-11-27T04:14:24.133Z,5.50
2018-11-27T04:16:52.333Z,5.40
2018-11-27T04:19:20.534Z,5.50
2018-11-27T04:21:48.723Z,5.50
2018-11-27T04:24:16.934Z,5.60
2018-11-27T04:26:45.254Z,5.50
2018-11-27T04:29:13.470Z,5.60
2018-11-27T04:31:41.663Z,5.60
2018-11-27T04:34:09.878Z,5.60
2018-11-27T04:36:38.056Z,5.60
2018-11-27T04:39:08.579Z,5.60
2018-11-27T04:41:36.774Z,5.60
2018-11-27T04:44:05.105Z,5.60
2018-11-27T04:46:33.296Z,5.60
2018-11-27T04:49:01.498Z,5.60
2018-11-27T04:51:29.759Z,5.60
2018-11-27T04:53:57.923Z,5.70
2018-11-27T04:56:26.137Z,5.60
2018-11-27T04:58:54.331Z,5.70
2018-11-27T05:01:22.604Z,5.70
2018-11-27T05:03:50.794Z,5.70
2018-11-27T05:06:19.079Z,5.70
2018-11-27T05:08:47.393Z,5.70
2018-11-27T05:11:15.595Z,5.70
2018-11-27T05:13:43.785Z,5.70
2018-11-27T05:16:11.967Z,5.70
2018-11-27T05:18:40.172Z,5.60
2018-11-27T05:21:08.374Z,5.60
2018-11-27T05:23:36.562Z,5.60
2018-11-27T05:26:04.838Z,5.60
2018-11-27T05:28:33.006Z,5.60
2018-11-27T05:31:01.226Z,5.60
2018-11-27T05:33:29.418Z,5.50
2018-11-27T05:35:57.698Z,5.60
2018-11-27T05:38:25.932Z,5.60
2018-11-27T05:40:54.308Z,5.60
2018-11-27T05:43:22.485Z,5.50
2018-11-27T05:45:50.698Z,5.50
2018-11-27T05:48:18.910Z,5.50
2018-11-27T05:50:47.114Z,5.50
2018-11-27T05:53:15.318Z,5.50
2018-11-27T05:55:43.536Z,5.60
2018-11-27T05:58:11.729Z,5.60
2018-11-27T06:00:39.938Z,5.50
2018-11-27T06:03:09.570Z,5.60
2018-11-27T06:05:37.752Z,5.60
2018-11-27T06:08:06.334Z,5.60
2018-11-27T06:10:34.691Z,5.60
2018-11-27T06:13:02.859Z,5.70
2018-11-27T06:15:31.072Z,5.70
2018-11-27T06:18:00.730Z,5.70
2018-11-27T06:20:28.932Z,5.60
2018-11-27T06:22:57.177Z,5.60
2018-11-27T06:25:26.532Z,5.60
2018-11-27T06:27:57.007Z,5.60
2018-11-27T06:30:26.145Z,5.60
2018-11-27T06:32:54.330Z,5.60
2018-11-27T06:35:25.872Z,5.60
2018-11-27T06:37:54.101Z,5.60
2018-11-27T06:40:27.704Z,5.60
2018-11-27T06:42:55.920Z,5.60
2018-11-27T06:45:24.276Z,5.50
2018-11-27T06:47:52.995Z,5.50
2018-11-27T06:50:21.918Z,5.50
2018-11-27T06:52:50.225Z,5.50
2018-11-27T06:55:19.472Z,5.50
2018-11-27T06:57:47.729Z,5.50
2018-11-27T07:00:17.921Z,5.50
2018-11-27T07:02:46.126Z,5.60
2018-11-27T07:05:14.710Z,5.60
2018-11-27T07:07:43.104Z,5.50
2018-11-27T07:10:22.430Z,5.50
2018-11-27T07:12:52.090Z,5.50
2018-11-27T07:15:21.470Z,5.50
2018-11-27T07:17:49.756Z,5.50
2018-11-27T07:20:17.949Z,5.50
2018-11-27T07:22:46.162Z,5.50
2018-11-27T07:25:15.123Z,5.50
2018-11-27T07:27:44.658Z,5.60
2018-11-27T07:30:17.100Z,5.50
2018-11-27T07:32:45.294Z,5.60
2018-11-27T07:35:14.271Z,5.60
2018-11-27T07:37:42.516Z,5.60
2018-11-27T07:40:12.782Z,5.60
2018-11-27T07:42:41.049Z,5.60
2018-11-27T07:45:12.013Z,5.70
2018-11-27T07:47:40.494Z,5.60
2018-11-27T07:50:09.413Z,5.70
2018-11-27T07:52:37.602Z,5.70
2018-11-27T07:55:07.819Z,5.70
2018-11-27T07:57:36.200Z,5.70
2018-11-27T08:00:06.837Z,5.70
2018-11-27T08:02:35.029Z,5.70
2018-11-27T08:05:03.271Z,5.70
2018-11-27T08:07:31.465Z,5.70
2018-11-27T08:09:59.682Z,5.80
2018-11-27T08:12:27.878Z,5.80
2018-11-27T08:14:56.086Z,5.80
2018-11-27T08:17:24.316Z,5.80
2018-11-27T08:19:52.506Z,5.80
2018-11-27T08:22:20.698Z,5.90
2018-11-27T08:24:48.965Z,5.80
2018-11-27T08:27:17.142Z,5.80
2018-11-27T08:29:45.314Z,5.80
2018-11-27T08:32:13.522Z,5.80
2018-11-27T08:34:41.720Z,5.80
2018-11-27T08:37:09.949Z,5.80
2018-11-27T08:39:38.173Z,5.80
2018-11-27T08:42:06.386Z,5.80
2018-11-27T08:44:34.577Z,5.90
2018-11-27T08:47:02.797Z,5.80
2018-11-27T08:49:31.007Z,5.80
2018-11-27T08:51:59.235Z,5.80
2018-11-27T08:54:27.451Z,5.80
2018-11-27T08:56:55.694Z,5.80
2018-11-27T08:59:23.867Z,5.70
2018-11-27T09:01:52.054Z,5.70
2018-11-27T09:04:20.259Z,5.80
2018-11-27T09:06:48.698Z,5.80
2018-11-27T09:09:16.900Z,5.80
2018-11-27T09:11:45.105Z,5.80
2018-11-27T09:14:14.092Z,5.80
2018-11-27T09:16:41.673Z,5.80
2018-11-27T09:19:09.874Z,5.90
2018-11-27T09:21:38.066Z,5.80
2018-11-27T09:24:06.295Z,5.80
2018-11-27T09:26:34.533Z,5.90
2018-11-27T09:29:02.734Z,5.90
2018-11-27T09:31:30.945Z,6.00
2018-11-27T09:33:59.142Z,6.10
2018-11-27T09:36:27.348Z,6.10
2018-11-27T09:38:55.601Z,6.20
2018-11-27T09:41:23.803Z,6.20
2018-11-27T09:43:52.013Z,6.30
2018-11-27T09:46:20.260Z,6.30
2018-11-27T09:48:48.561Z,6.40
2018-11-27T09:51:16.733Z,6.30
2018-11-27T09:53:44.985Z,6.20
2018-11-27T09:56:13.186Z,6.20
2018-11-27T09:58:41.410Z,6.20
2018-11-27T10:01:09.611Z,6.30
2018-11-27T10:03:37.821Z,6.30
2018-11-27T10:06:06.209Z,6.40
2018-11-27T10:08:34.405Z,6.40
2018-11-27T10:11:02.602Z,6.50
2018-11-27T10:13:30.793Z,6.60
2018-11-27T10:15:59.028Z,6.60
2018-11-27T10:18:27.208Z,6.60
2018-11-27T10:20:55.418Z,6.60
2018-11-27T10:23:23.626Z,6.50
2018-11-27T10:25:51.848Z,6.50
2018-11-27T10:28:20.060Z,6.60
2018-11-27T10:30:48.422Z,6.50
2018-11-27T10:33:16.606Z,6.50
2018-11-27T10:35:48.620Z,6.50
2018-11-27T10:38:16.826Z,6.50
2018-11-27T10:40:45.583Z,6.50
2018-11-27T10:43:19.461Z,6.40
2018-11-27T10:45:42.003Z,6.40
2018-11-27T10:48:10.195Z,6.40
2018-11-27T10:50:38.393Z,6.50
2018-11-27T10:53:08.504Z,6.60
2018-11-27T10:55:36.724Z,6.60
2018-11-27T10:58:05.398Z,6.60
2018-11-27T11:00:39.157Z,6.50
2018-11-27T11:03:29.786Z,6.60
2018-11-27T11:05:57.988Z,6.50
2018-11-27T11:08:26.168Z,6.50
2018-11-27T11:10:54.354Z,6.50
2018-11-27T11:13:22.569Z,6.50
2018-11-27T11:15:50.762Z,6.40
2018-11-27T11:18:18.981Z,6.50
2018-11-27T11:20:47.155Z,6.60
2018-11-27T11:23:15.394Z,6.60
2018-11-27T11:25:44.599Z,6.60
2018-11-27T11:28:11.824Z,6.60
2018-11-27T11:30:40.024Z,6.50
2018-11-27T11:33:08.890Z,6.40
2018-11-27T11:35:37.108Z,6.50
2018-11-27T11:38:05.780Z,6.50
2018-11-27T11:40:33.985Z,6.60
2018-11-27T11:43:02.206Z,6.60
2018-11-27T11:45:30.384Z,6.70
2018-11-27T11:47:58.604Z,6.90
2018-11-27T11:50:29.499Z,7.00
2018-11-27T11:53:11.807Z,7.10
2018-11-27T11:55:40.032Z,7.20
2018-11-27T11:58:08.715Z,7.20
2018-11-27T12:00:40.166Z,7.20
2018-11-27T12:03:08.538Z,7.30
2018-11-27T12:05:38.510Z,7.20
2018-11-27T12:08:07.765Z,7.20
2018-11-27T12:10:36.551Z,7.10
2018-11-27T12:13:05.573Z,7.00
2018-11-27T12:15:33.782Z,7.00
2018-11-27T12:18:02.020Z,7.10
2018-11-27T12:20:30.207Z,6.90
2018-11-27T12:22:58.426Z,6.90
2018-11-27T12:25:26.627Z,6.90
2018-11-27T12:27:54.859Z,6.90
2018-11-27T12:30:24.522Z,6.90
2018-11-27T12:32:52.843Z,6.80
2018-11-27T12:35:21.721Z,6.80
2018-11-27T12:37:50.125Z,6.80
2018-11-27T12:40:21.377Z,6.90
2018-11-27T12:42:49.881Z,6.70
2018-11-27T12:45:20.595Z,6.70
2018-11-27T12:47:48.957Z,6.70
2018-11-27T12:50:18.544Z,6.70
2018-11-27T12:52:46.738Z,6.70
2018-11-27T12:55:17.128Z,6.70
2018-11-27T12:57:45.349Z,6.60
2018-11-27T13:00:14.933Z,6.60
2018-11-27T13:02:43.134Z,6.60
2018-11-27T13:05:12.657Z,6.60
2018-11-27T13:07:40.933Z,6.50
2018-11-27T13:10:14.342Z,6.50
2018-11-27T13:12:43.132Z,6.50
2018-11-27T13:15:13.680Z,6.50
2018-11-27T13:17:41.896Z,6.40
2018-11-27T13:20:12.216Z,6.40
2018-11-27T13:22:40.522Z,6.30
2018-11-27T13:25:12.437Z,6.30
2018-11-27T13:27:40.670Z,6.20
2018-11-27T13:30:21.291Z,6.30
2018-11-27T13:32:51.471Z,6.20
2018-11-27T13:35:19.662Z,6.10
2018-11-27T13:37:47.856Z,6.10
2018-11-27T13:40:16.099Z,6.10
2018-11-27T13:42:44.291Z,6.10
2018-11-27T13:45:13.607Z,6.20
2018-11-27T13:47:42.346Z,6.20
2018-11-27T13:50:14.391Z,6.20
2018-11-27T13:52:42.661Z,6.20
2018-11-27T13:55:13.335Z,6.20
2018-11-27T13:57:41.531Z,6.20
2018-11-27T14:00:13.834Z,6.20
2018-11-27T14:02:43.045Z,6.10
2018-11-27T14:05:14.826Z,6.00
2018-11-27T14:07:43.102Z,6.10
2018-11-27T14:10:11.911Z,6.10
2018-11-27T14:12:40.145Z,6.00
2018-11-27T14:15:14.964Z,6.00
2018-11-27T14:17:43.279Z,6.00
2018-11-27T14:20:11.488Z,6.10
2018-11-27T14:22:39.742Z,6.10
2018-11-27T14:25:09.898Z,6.20
2018-11-27T14:27:38.216Z,6.20
2018-11-27T14:30:12.025Z,6.10
2018-11-27T14:32:40.208Z,6.10
2018-11-27T14:35:08.393Z,6.10
2018-11-27T14:37:36.600Z,6.10
2018-11-27T14:40:09.221Z,6.10
2018-11-27T14:42:37.440Z,6.00
2018-11-27T14:45:07.424Z,6.10
2018-11-27T14:47:35.668Z,6.10
2018-11-27T14:50:04.305Z,6.10
2018-11-27T14:52:32.416Z,6.10
2018-11-27T14:55:00.602Z,6.10
2018-11-27T14:57:28.782Z,6.20
2018-11-27T14:59:56.966Z,6.20
2018-11-27T15:02:25.161Z,6.10
2018-11-27T15:04:53.431Z,6.10
2018-11-27T15:07:21.621Z,6.10
2018-11-27T15:09:50.078Z,6.10
2018-11-27T15:12:18.286Z,6.20
2018-11-27T15:14:46.500Z,6.20
2018-11-27T15:17:14.724Z,6.20
2018-11-27T15:19:42.914Z,6.20
2018-11-27T15:22:11.078Z,6.10
2018-11-27T15:24:39.335Z,6.00
2018-11-27T15:27:07.529Z,5.90
2018-11-27T15:29:35.722Z,5.90
2018-11-27T15:32:03.907Z,5.80
2018-11-27T15:34:32.098Z,5.80
2018-11-27T15:37:00.310Z,5.70
2018-11-27T15:39:28.557Z,5.70
2018-11-27T15:41:56.740Z,5.60
2018-11-27T15:44:24.972Z,5.60
2018-11-27T15:46:53.142Z,5.60
2018-11-27T15:49:21.335Z,5.50
2018-11-27T15:54:40.238Z,5.50
2018-11-27T15:57:08.553Z,5.50
2018-11-27T15:59:36.755Z,5.30
2018-11-27T16:02:04.939Z,5.30
2018-11-27T16:04:33.182Z,5.20
2018-11-27T16:07:01.377Z,5.20
2018-11-27T16:09:29.618Z,5.20
2018-11-27T16:11:57.875Z,5.30
2018-11-27T16:14:26.139Z,5.20
2018-11-27T16:16:54.372Z,5.20
2018-11-27T16:19:22.586Z,5.20
2018-11-27T16:21:50.901Z,5.20
2018-11-27T16:24:19.135Z,5.10
2018-11-27T16:26:47.380Z,5.10
2018-11-27T16:29:15.598Z,5.10
2018-11-27T16:31:44.937Z,5.10
2018-11-27T16:34:12.135Z,5.00
2018-11-27T16:36:40.343Z,4.90
2018-11-27T16:39:10.843Z,5.00
2018-11-27T16:41:39.379Z,5.10
2018-11-27T16:44:07.646Z,5.10
2018-11-27T16:46:35.871Z,5.20
2018-11-27T16:49:04.139Z,5.30
2018-11-27T16:51:32.393Z,5.30
2018-11-27T16:54:00.636Z,5.40
2018-11-27T16:56:28.882Z,5.30
2018-11-27T16:58:57.093Z,5.40
2018-11-27T17:01:25.303Z,5.40
2018-11-27T17:03:53.519Z,5.40
2018-11-27T17:06:21.802Z,5.40
2018-11-27T17:08:50.275Z,5.30
2018-11-27T17:11:18.562Z,5.30
2018-11-27T17:13:46.806Z,5.30
2018-11-27T17:16:15.152Z,5.30
2018-11-27T17:18:43.383Z,5.30
2018-11-27T17:21:11.631Z,5.30
2018-11-27T17:23:39.827Z,5.40
2018-11-27T17:26:08.143Z,5.30
2018-11-27T17:28:36.481Z,5.40
2018-11-27T17:31:09.661Z,5.40
2018-11-27T17:33:46.820Z,5.50
2018-11-27T17:36:15.132Z,5.50
2018-11-27T17:38:43.426Z,5.50
2018-11-27T17:41:11.654Z,5.50
2018-11-27T17:43:40.185Z,5.50
2018-11-27T17:46:08.529Z,5.40
2018-11-27T17:48:36.762Z,5.20
2018-11-27T17:51:05.329Z,5.10
2018-11-27T17:53:33.571Z,5.00
2018-11-27T17:56:01.965Z,4.90
2018-11-27T17:58:30.202Z,5.00
2018-11-27T18:00:58.447Z,4.90
2018-11-27T18:03:26.646Z,4.90
2018-11-27T18:05:54.858Z,4.90
2018-11-27T18:08:23.185Z,4.90
2018-11-27T18:10:51.462Z,4.90
2018-11-27T18:13:19.766Z,4.80
2018-11-27T18:15:48.011Z,4.80
2018-11-27T18:18:16.323Z,4.90
2018-11-27T18:20:44.581Z,4.80
2018-11-27T18:23:12.791Z,4.80
2018-11-27T18:25:41.003Z,4.80
2018-11-27T18:28:09.203Z,4.90
2018-11-27T18:30:37.776Z,4.90
2018-11-27T18:33:06.418Z,4.90
2018-11-27T18:35:34.686Z,4.90
2018-11-27T18:38:02.952Z,4.90
2018-11-27T18:40:31.195Z,4.80
2018-11-27T18:42:59.530Z,4.80
2018-11-27T18:45:29.527Z,4.90
2018-11-27T18:47:57.992Z,4.80
2018-11-27T18:50:27.513Z,4.80
2018-11-27T18:52:55.772Z,4.70
2018-11-27T18:55:24.094Z,4.70
2018-11-27T18:57:52.623Z,4.60
2018-11-27T19:00:22.767Z,4.60
2018-11-27T19:02:51.358Z,4.50
2018-11-27T19:05:19.615Z,4.40
2018-11-27T19:07:50.624Z,4.30
2018-11-27T19:10:25.841Z,4.30
2018-11-27T19:12:54.295Z,4.20
2018-11-27T19:15:25.650Z,4.10
2018-11-27T19:17:55.461Z,4.00
2018-11-27T19:20:23.761Z,3.90
2018-11-27T19:22:51.921Z,3.80
2018-11-27T19:25:20.196Z,3.70
2018-11-27T19:27:48.481Z,3.60
2018-11-27T19:30:17.902Z,3.50
2018-11-27T19:32:46.214Z,3.40
2018-11-27T19:35:16.372Z,3.30
2018-11-27T19:37:45.154Z,3.30
2018-11-27T19:40:14.560Z,3.20
2018-11-27T19:42:42.785Z,3.10
2018-11-27T19:45:13.814Z,3.00
2018-11-27T19:47:42.967Z,3.00
2018-11-27T19:50:12.202Z,3.00
2018-11-27T19:52:41.257Z,2.90
2018-11-27T19:55:10.960Z,2.90
2018-11-27T19:57:39.156Z,2.80
2018-11-27T20:00:26.650Z,2.70
2018-11-27T20:02:55.130Z,2.60
2018-11-27T20:05:27.727Z,2.50
2018-11-27T20:07:55.984Z,2.50
2018-11-27T20:10:24.406Z,2.40
2018-11-27T20:12:52.655Z,2.30
2018-11-27T20:15:23.382Z,2.30
2018-11-27T20:17:52.207Z,2.30
2018-11-27T20:20:21.688Z,2.30
2018-11-27T20:22:50.101Z,2.20
2018-11-27T20:25:19.439Z,2.20
2018-11-27T20:27:47.664Z,2.10
2018-11-27T20:30:18.593Z,2.10
2018-11-27T20:33:03.835Z,2.00
2018-11-27T20:35:32.564Z,2.00
2018-11-27T20:38:02.374Z,1.90
2018-11-27T20:40:30.598Z,1.90
2018-11-27T20:42:58.843Z,1.80
2018-11-27T20:45:27.491Z,1.70
2018-11-27T20:48:08.469Z,1.70
2018-11-27T20:50:36.721Z,1.70
2018-11-27T20:53:05.015Z,1.60
2018-11-27T20:55:33.429Z,1.50
2018-11-27T20:58:01.740Z,1.50
2018-11-27T21:00:41.169Z,1.50
2018-11-27T21:03:10.135Z,1.50
2018-11-27T21:05:38.331Z,1.60
2018-11-27T21:08:07.251Z,1.50
2018-11-27T21:10:35.742Z,1.40
2018-11-27T21:13:03.964Z,1.40
2018-11-27T21:15:32.170Z,1.40
2018-11-27T21:18:00.384Z,1.40
2018-11-27T21:20:28.687Z,1.40
2018-11-27T21:22:56.912Z,1.50
2018-11-27T21:25:25.564Z,1.50
2018-11-27T21:27:58.457Z,1.50
2018-11-27T21:30:26.666Z,1.40
2018-11-27T21:32:54.901Z,1.30
2018-11-27T21:35:23.150Z,1.20
2018-11-27T21:37:51.398Z,1.30
2018-11-27T21:40:19.655Z,1.20
2018-11-27T21:42:47.976Z,1.20
2018-11-27T21:45:18.506Z,1.20
2018-11-27T21:47:47.578Z,1.20
2018-11-27T21:50:24.850Z,1.20
2018-11-27T21:52:53.112Z,1.20
2018-11-27T21:55:21.319Z,1.10
2018-11-27T21:57:49.593Z,1.10
2018-11-27T22:00:21.243Z,1.00
2018-11-27T22:02:49.531Z,1.00
2018-11-27T22:05:17.711Z,1.00
2018-11-27T22:07:45.924Z,1.00
2018-11-27T22:10:19.507Z,1.00
2018-11-27T22:12:51.078Z,1.00
2018-11-27T22:15:21.657Z,0.90
2018-11-27T22:17:49.936Z,1.00
2018-11-27T22:20:21.221Z,1.00
2018-11-27T22:22:46.458Z,1.00
2018-11-27T22:25:14.707Z,1.00
2018-11-27T22:27:43.084Z,1.00
2018-11-27T22:30:12.541Z,0.90
2018-11-27T22:32:41.884Z,1.00
2018-11-27T22:35:10.454Z,1.00
2018-11-27T22:37:38.788Z,0.90
2018-11-27T22:40:17.684Z,0.80
2018-11-27T22:42:46.575Z,0.80
2018-11-27T22:45:17.902Z,0.80
2018-11-27T22:47:46.101Z,0.80
2018-11-27T22:50:15.477Z,0.70
2018-11-27T22:52:43.795Z,0.70
2018-11-27T22:55:12.320Z,0.70
2018-11-27T22:57:40.623Z,0.70
2018-11-27T23:00:31.427Z,0.60
2018-11-27T23:02:59.618Z,0.50
2018-11-27T23:05:27.881Z,0.50
2018-11-27T23:07:56.360Z,0.50
2018-11-27T23:10:25.929Z,0.50
2018-11-27T23:12:54.158Z,0.50
2018-11-27T23:15:22.466Z,0.50
2018-11-27T23:17:50.733Z,0.50
2018-11-27T23:20:19.266Z,0.50
2018-11-27T23:22:47.634Z,0.40
2018-11-27T23:25:16.893Z,0.50
2018-11-27T23:27:45.202Z,0.30
2018-11-27T23:30:18.184Z,0.30
2018-11-27T23:32:46.394Z,0.30
2018-11-27T23:35:14.593Z,0.20
2018-11-27T23:37:42.820Z,0.20
2018-11-27T23:40:13.162Z,0.20
2018-11-27T23:42:41.582Z,0.20
2018-11-27T23:45:11.792Z,0.10
2018-11-27T23:47:40.019Z,0.20
2018-11-27T23:50:13.188Z,0.10
2018-11-27T23:52:41.658Z,0.10
2018-11-27T23:55:11.769Z,0.10
2018-11-27T23:57:40.304Z,0.20
